Time;durP1;ratioP1;P1;durP2;ratioP2;P2;SDS_P1;SDS_P2;PMS_P1;PMS_P2;Temp;Humidity;BMP_temperature;BMP_pressure;BME280_temperature;BME280_humidity;BME280_pressure;Samples;Min_cycle;Max_cycle;Signal;HPM_P1;HPM_P2
2022/06/08 00:01:10;;;;;;;10.25;6.50;;;13.20;99.90;;;;;;5049556;28;20108;-50
2022/06/08 00:03:47;;;;;;;11.77;7.47;;;13.20;99.90;;;;;;5043676;28;20029;-52
2022/06/08 00:06:14;;;;;;;10.27;7.07;;;13.20;99.90;;;;;;5043715;28;20049;-49
2022/06/08 00:08:40;;;;;;;12.57;7.13;;;13.10;99.90;;;;;;5027446;28;20386;-49
2022/06/08 00:11:06;;;;;;;11.07;7.32;;;13.00;99.90;;;;;;5044524;28;20033;-51
2022/06/08 00:13:32;;;;;;;10.85;7.38;;;13.10;99.90;;;;;;5043182;28;20095;-50
2022/06/08 00:15:58;;;;;;;14.23;7.47;;;13.00;99.90;;;;;;5045201;28;20121;-50
2022/06/08 00:18:24;;;;;;;11.65;7.97;;;13.00;99.90;;;;;;5043025;28;20100;-52
2022/06/08 00:20:50;;;;;;;10.43;7.10;;;13.00;99.90;;;;;;5045614;28;20013;-48
2022/06/08 00:23:16;;;;;;;16.42;8.43;;;13.00;99.90;;;;;;5045168;28;20029;-50
2022/06/08 00:25:42;;;;;;;15.40;8.70;;;13.00;99.90;;;;;;5043835;28;20026;-51
2022/06/08 00:28:08;;;;;;;15.32;8.27;;;13.00;99.90;;;;;;5043763;28;20057;-51
2022/06/08 00:30:34;;;;;;;13.48;7.88;;;13.00;99.90;;;;;;5050516;28;20021;-49
2022/06/08 00:33:00;;;;;;;13.57;8.70;;;13.00;99.90;;;;;;5044582;28;20032;-48
2022/06/08 00:35:26;;;;;;;12.05;8.23;;;13.00;99.90;;;;;;5047728;28;20025;-48
2022/06/08 00:37:51;;;;;;;13.13;8.20;;;12.90;99.90;;;;;;5047481;28;20388;-51
2022/06/08 00:40:22;;;;;;;10.70;7.82;;;12.90;99.90;;;;;;5043001;28;20022;-49
2022/06/08 00:42:49;;;;;;;14.55;9.07;;;12.90;99.90;;;;;;5045557;28;20552;-49
2022/06/08 00:45:22;;;;;;;14.15;8.23;;;12.90;99.90;;;;;;5042509;28;20017;-50
2022/06/08 00:47:55;;;;;;;13.93;9.13;;;12.80;99.90;;;;;;5047050;28;20481;-47
2022/06/08 00:50:45;;;;;;;12.82;8.13;;;12.80;99.90;;;;;;5045724;28;20037;-48
2022/06/08 00:53:15;;;;;;;12.70;8.13;;;12.80;99.90;;;;;;5044521;28;20028;-49
2022/06/08 00:55:41;;;;;;;19.27;9.23;;;12.80;99.90;;;;;;5041766;28;20053;-48
2022/06/08 00:58:26;;;;;;;12.45;8.93;;;12.70;99.90;;;;;;5043425;28;20097;-49
2022/06/08 01:00:52;;;;;;;17.27;9.10;;;12.70;99.90;;;;;;5049501;28;20080;-49
2022/06/08 01:03:19;;;;;;;16.88;9.23;;;12.70;99.90;;;;;;5043703;28;20430;-49
2022/06/08 01:06:03;;;;;;;13.18;9.18;;;12.60;99.90;;;;;;5043267;28;20082;-51
2022/06/08 01:08:33;;;;;;;20.55;9.90;;;12.60;99.90;;;;;;5043874;28;20101;-51
2022/06/08 01:11:05;;;;;;;13.15;8.85;;;12.60;99.90;;;;;;5046429;28;20032;-51
2022/06/08 01:13:34;;;;;;;16.25;10.00;;;12.60;99.90;;;;;;5046308;28;20441;-49
2022/06/08 01:16:05;;;;;;;15.30;9.95;;;12.60;99.90;;;;;;5048473;28;20390;-51
2022/06/08 01:18:32;;;;;;;18.30;10.20;;;12.70;99.90;;;;;;5054018;28;20021;-50
2022/06/08 01:21:19;;;;;;;16.45;9.57;;;12.70;99.90;;;;;;5053958;28;20033;-50
2022/06/08 01:23:55;;;;;;;16.02;8.95;;;12.60;99.90;;;;;;5054363;28;20402;-50
2022/06/08 01:26:23;;;;;;;17.63;10.30;;;12.50;99.90;;;;;;5052736;28;20070;-48
2022/06/08 01:29:07;;;;;;;18.30;10.02;;;12.50;99.90;;;;;;5053882;28;20541;-51
2022/06/08 01:31:57;;;;;;;17.13;9.73;;;12.50;99.90;;;;;;5054166;28;20025;-50
2022/06/08 01:34:57;;;;;;;14.93;10.07;;;12.50;99.90;;;;;;5054409;28;20112;-53
2022/06/08 01:38:04;;;;;;;15.57;10.00;;;12.50;99.90;;;;;;5054342;28;20070;-50
2022/06/08 01:41:02;;;;;;;16.02;9.82;;;12.50;99.90;;;;;;5054377;28;20088;-51
2022/06/08 01:44:04;;;;;;;19.08;10.63;;;12.50;99.90;;;;;;5054001;28;20060;-51
2022/06/08 01:46:33;;;;;;;14.90;9.60;;;12.50;99.90;;;;;;5054658;28;20079;-49
2022/06/08 01:49:22;;;;;;;13.70;9.38;;;12.40;99.90;;;;;;5053960;28;20021;-48
2022/06/08 01:52:19;;;;;;;20.95;10.80;;;12.40;99.90;;;;;;5054038;28;20112;-50
2022/06/08 01:55:03;;;;;;;14.77;10.07;;;12.40;99.90;;;;;;5053599;28;20028;-48
2022/06/08 01:57:35;;;;;;;16.42;10.25;;;12.40;99.90;;;;;;5053971;28;20029;-50
2022/06/08 02:00:34;;;;;;;20.20;11.15;;;12.40;99.90;;;;;;5053572;28;20025;-47
2022/06/08 02:03:36;;;;;;;15.27;9.90;;;12.40;99.90;;;;;;5039877;28;20041;-48
2022/06/08 02:06:11;;;;;;;15.88;10.13;;;12.40;99.90;;;;;;5053731;28;20104;-48
2022/06/08 02:08:50;;;;;;;19.45;10.95;;;12.40;99.90;;;;;;5053700;28;20383;-48
2022/06/08 02:11:44;;;;;;;16.55;11.15;;;12.40;99.90;;;;;;5053390;28;20037;-51
2022/06/08 02:14:23;;;;;;;16.30;10.55;;;12.30;99.90;;;;;;5052901;28;20063;-48
2022/06/08 02:17:03;;;;;;;18.67;10.90;;;12.30;99.90;;;;;;5053523;28;20454;-50
2022/06/08 02:19:49;;;;;;;15.40;10.68;;;12.30;99.90;;;;;;5053453;28;20036;-51
2022/06/08 02:22:31;;;;;;;17.95;10.90;;;12.30;99.90;;;;;;5053487;28;20017;-50
2022/06/08 02:25:21;;;;;;;18.40;11.18;;;12.30;99.90;;;;;;5053599;28;20021;-50
2022/06/08 02:28:25;;;;;;;16.35;11.68;;;12.30;99.90;;;;;;5053532;28;20040;-48
2022/06/08 02:31:00;;;;;;;20.30;11.43;;;12.30;99.90;;;;;;5003372;28;20037;-48
2022/06/08 02:36:37;;;;;;;22.25;12.98;;;12.40;99.90;;;;;;5053642;28;20040;-48
2022/06/08 02:39:09;;;;;;;19.25;12.05;;;12.40;99.90;;;;;;5053990;28;20102;-54
2022/06/08 02:41:39;;;;;;;24.02;12.07;;;12.40;99.90;;;;;;5053138;28;20521;-53
2022/06/08 02:44:09;;;;;;;20.15;12.38;;;12.40;99.90;;;;;;5053228;28;20111;-54
2022/06/08 02:46:53;;;;;;;21.80;12.77;;;12.40;99.90;;;;;;5052996;28;20343;-52
2022/06/08 02:49:19;;;;;;;24.58;13.32;;;12.50;99.90;;;;;;5053221;28;20025;-52
2022/06/08 02:51:51;;;;;;;18.88;12.35;;;12.50;99.90;;;;;;5052914;28;20086;-52
2022/06/08 02:54:23;;;;;;;21.50;12.73;;;12.60;99.90;;;;;;5053005;28;20057;-54
2022/06/08 02:57:16;;;;;;;18.77;12.25;;;12.60;99.90;;;;;;5053077;28;20025;-52
2022/06/08 03:00:08;;;;;;;21.23;12.18;;;12.60;99.90;;;;;;5052630;28;20075;-53
2022/06/08 03:02:39;;;;;;;22.10;12.18;;;12.60;99.90;;;;;;5044932;28;20025;-53
2022/06/08 03:05:30;;;;;;;18.35;12.68;;;12.70;99.90;;;;;;5052957;28;20108;-53
2022/06/08 03:08:00;;;;;;;;;;;12.70;99.90;;;;;;5046851;28;20044;-50
2022/06/08 03:10:34;;;;;;;23.67;12.32;;;12.70;99.90;;;;;;5052730;28;19908;-48
2022/06/08 03:13:13;;;;;;;17.83;12.73;;;12.70;99.90;;;;;;5052529;28;20025;-49
2022/06/08 03:15:40;;;;;;;23.80;12.90;;;12.80;99.90;;;;;;5052919;28;20025;-49
2022/06/08 03:18:06;;;;;;;19.67;12.45;;;12.80;99.90;;;;;;5052728;28;20122;-47
2022/06/08 03:20:32;;;;;;;19.27;12.88;;;12.80;99.90;;;;;;5052540;28;20068;-49
2022/06/08 03:22:58;;;;;;;21.75;11.75;;;12.80;99.90;;;;;;5052455;28;20035;-49
2022/06/08 03:25:24;;;;;;;22.25;12.07;;;12.90;99.90;;;;;;5053888;28;20021;-48
2022/06/08 03:27:51;;;;;;;18.77;12.32;;;12.90;99.90;;;;;;5056573;28;20025;-50
2022/06/08 03:30:17;;;;;;;21.83;12.68;;;12.90;99.90;;;;;;5056440;28;20067;-48
2022/06/08 03:32:43;;;;;;;20.88;12.65;;;13.00;99.90;;;;;;5056686;28;20527;-49
2022/06/08 03:35:09;;;;;;;17.85;12.20;;;13.00;99.90;;;;;;5056306;28;20032;-48
2022/06/08 03:37:35;;;;;;;20.33;11.90;;;13.00;99.90;;;;;;5056255;28;20057;-49
2022/06/08 03:40:02;;;;;;;17.83;11.95;;;13.00;99.90;;;;;;5057124;28;20056;-51
2022/06/08 03:42:28;;;;;;;16.10;11.80;;;13.00;99.90;;;;;;5039003;28;20021;-50
2022/06/08 03:44:53;;;;;;;17.05;11.98;;;13.00;99.90;;;;;;5056384;28;20032;-48
2022/06/08 03:47:24;;;;;;;18.55;11.52;;;13.10;99.90;;;;;;5056890;28;20028;-48
2022/06/08 03:49:51;;;;;;;21.13;11.80;;;13.10;99.90;;;;;;5057221;28;20033;-49
2022/06/08 03:52:24;;;;;;;20.13;11.98;;;13.20;99.90;;;;;;5056880;28;20086;-48
2022/06/08 03:54:54;;;;;;;18.55;11.90;;;13.20;99.90;;;;;;5056059;28;20025;-49
2022/06/08 03:57:21;;;;;;;18.65;12.02;;;13.20;99.90;;;;;;5056364;28;20024;-48
2022/06/08 03:59:49;;;;;;;18.65;11.77;;;13.20;99.90;;;;;;5055841;28;20071;-48
2022/06/08 04:02:15;;;;;;;20.10;11.73;;;13.30;99.90;;;;;;5055859;28;20025;-49
2022/06/08 04:04:43;;;;;;;18.98;12.10;;;13.30;99.90;;;;;;5038092;28;20390;-51
2022/06/08 04:07:10;;;;;;;19.30;12.15;;;13.40;99.90;;;;;;5037857;28;20075;-52
2022/06/08 04:09:36;;;;;;;17.98;11.43;;;13.40;99.90;;;;;;5055926;28;20041;-51
2022/06/08 04:12:03;;;;;;;22.65;13.13;;;13.50;99.90;;;;;;5055479;28;20032;-48
2022/06/08 04:14:29;;;;;;;17.92;11.70;;;13.50;99.90;;;;;;5055711;28;20095;-52
2022/06/08 04:16:55;;;;;;;19.25;12.10;;;13.50;99.90;;;;;;5037713;28;20029;-50
2022/06/08 04:19:21;;;;;;;17.75;12.18;;;13.50;99.90;;;;;;5055473;28;20024;-51
2022/06/08 04:21:47;;;;;;;14.88;11.50;;;13.60;99.90;;;;;;5037552;28;20032;-48
2022/06/08 04:24:16;;;;;;;19.13;11.82;;;13.60;99.90;;;;;;5055549;28;20029;-52
2022/06/08 04:26:42;;;;;;;18.58;11.68;;;13.50;99.90;;;;;;5055809;28;20371;-52
2022/06/08 04:29:09;;;;;;;18.85;11.98;;;13.60;99.90;;;;;;5055500;28;20478;-51
2022/06/08 04:31:35;;;;;;;14.63;11.00;;;13.60;99.90;;;;;;5055851;28;20025;-49
2022/06/08 04:34:03;;;;;;;18.38;11.65;;;13.60;99.90;;;;;;5055583;28;20025;-49
2022/06/08 04:36:29;;;;;;;18.50;11.55;;;13.60;99.90;;;;;;5054756;28;20028;-50
2022/06/08 04:38:55;;;;;;;17.75;11.45;;;13.60;99.90;;;;;;5055444;28;20449;-49
2022/06/08 04:41:21;;;;;;;15.20;10.80;;;13.70;99.90;;;;;;5055740;28;20033;-53
2022/06/08 04:43:47;;;;;;;17.95;10.82;;;13.70;99.90;;;;;;5055490;28;20393;-51
2022/06/08 04:46:15;;;;;;;19.13;12.00;;;13.70;99.90;;;;;;5055911;28;20046;-51
2022/06/08 04:48:43;;;;;;;18.17;11.30;;;13.80;99.90;;;;;;5055476;28;20359;-53
2022/06/08 04:51:10;;;;;;;19.77;12.80;;;13.80;99.90;;;;;;5037224;28;20024;-52
2022/06/08 04:53:39;;;;;;;18.08;12.02;;;13.90;99.90;;;;;;5055420;28;20068;-54
2022/06/08 04:56:05;;;;;;;15.60;10.82;;;14.00;99.90;;;;;;5055261;28;20071;-51
2022/06/08 04:58:31;;;;;;;17.48;11.25;;;14.00;99.90;;;;;;5055081;28;20025;-51
2022/06/08 05:00:57;;;;;;;20.23;11.95;;;14.00;99.90;;;;;;5055243;28;20104;-54
2022/06/08 05:03:23;;;;;;;18.30;11.68;;;14.00;99.90;;;;;;5055081;28;20059;-52
2022/06/08 05:05:49;;;;;;;16.88;11.95;;;14.00;99.90;;;;;;5054841;28;20037;-51
2022/06/08 05:08:18;;;;;;;20.67;12.00;;;14.10;99.90;;;;;;5054949;28;20044;-51
2022/06/08 05:10:45;;;;;;;14.50;11.23;;;14.10;99.90;;;;;;5089823;22;20084;-74
2022/06/08 05:13:12;;;;;;;18.20;11.23;;;14.10;99.90;;;;;;5067772;28;20047;-74
2022/06/08 05:15:40;;;;;;;19.10;11.68;;;14.10;99.90;;;;;;5071005;28;20033;-74
2022/06/08 05:18:07;;;;;;;19.65;13.35;;;14.20;99.90;;;;;;5062395;28;20167;-74
2022/06/08 05:20:36;;;;;;;18.02;12.57;;;14.20;99.90;;;;;;5042730;28;20029;-75
2022/06/08 05:23:02;;;;;;;19.25;12.35;;;14.20;99.90;;;;;;5057139;28;20025;-75
2022/06/08 05:25:33;;;;;;;20.52;12.73;;;14.30;99.90;;;;;;5057334;28;20013;-75
2022/06/08 05:27:59;;;;;;;17.98;12.27;;;14.40;99.90;;;;;;5057627;28;20025;-74
2022/06/08 05:30:25;;;;;;;19.05;12.07;;;14.50;99.90;;;;;;5056859;28;20064;-77
2022/06/08 05:32:51;;;;;;;19.40;13.05;;;14.60;99.90;;;;;;5057059;28;20029;-74
2022/06/08 05:35:17;;;;;;;20.15;12.65;;;14.70;99.90;;;;;;5040093;28;20470;-74
2022/06/08 05:37:43;;;;;;;18.83;12.02;;;14.80;99.90;;;;;;5058004;28;20033;-74
2022/06/08 05:40:10;;;;;;;21.58;12.32;;;14.90;99.90;;;;;;5059035;28;20021;-74
2022/06/08 05:42:36;;;;;;;18.95;11.65;;;15.10;99.90;;;;;;5058393;28;20028;-76
2022/06/08 05:45:04;;;;;;;22.15;12.70;;;15.30;99.90;;;;;;5058250;28;20032;-75
2022/06/08 05:47:30;;;;;;;22.70;13.23;;;15.40;99.90;;;;;;5058042;28;20025;-76
2022/06/08 05:49:56;;;;;;;18.23;11.70;;;15.50;99.90;;;;;;5057480;28;20032;-76
2022/06/08 05:52:21;;;;;;;17.08;11.75;;;15.60;99.90;;;;;;5056740;28;20096;-75
2022/06/08 05:54:47;;;;;;;18.05;11.55;;;15.70;99.90;;;;;;5039161;28;20081;-75
2022/06/08 05:57:13;;;;;;;20.40;11.65;;;15.80;99.90;;;;;;5056918;28;20025;-76
2022/06/08 05:59:39;;;;;;;15.57;10.85;;;16.00;99.90;;;;;;5057055;28;20017;-76
2022/06/08 06:02:07;;;;;;;18.73;12.10;;;16.20;99.90;;;;;;5056636;28;20028;-77
2022/06/08 06:04:33;;;;;;;17.90;11.80;;;16.30;99.90;;;;;;5056948;28;20029;-75
2022/06/08 06:06:59;;;;;;;17.58;11.63;;;16.40;99.90;;;;;;5057089;28;20496;-75
2022/06/08 06:09:26;;;;;;;18.58;12.00;;;16.40;99.90;;;;;;5056440;28;20021;-75
2022/06/08 06:11:52;;;;;;;16.02;12.10;;;16.50;99.90;;;;;;5056562;28;20020;-75
2022/06/08 06:14:18;;;;;;;17.05;12.10;;;16.50;99.90;;;;;;5038527;28;20028;-76
2022/06/08 06:16:44;;;;;;;20.73;11.48;;;16.60;99.90;;;;;;5057334;28;20021;-76
2022/06/08 06:19:09;;;;;;;16.10;11.65;;;16.60;99.90;;;;;;5057178;28;20454;-76
2022/06/08 06:21:35;;;;;;;17.33;11.32;;;16.60;99.90;;;;;;5065274;28;20076;-75
2022/06/08 06:24:03;;;;;;;16.42;10.98;;;16.60;99.90;;;;;;5072870;28;20021;-76
2022/06/08 06:26:29;;;;;;;17.40;11.48;;;16.60;99.90;;;;;;5057130;28;20021;-76
2022/06/08 06:28:56;;;;;;;22.65;11.10;;;16.70;99.90;;;;;;5057109;28;20021;-75
2022/06/08 06:31:42;;;;;;;14.73;9.70;;;16.70;99.90;;;;;;5040697;28;20031;-76
2022/06/08 06:34:15;;;;;;;12.93;9.00;;;16.70;99.90;;;;;;5057283;28;20466;-76
2022/06/08 06:36:40;;;;;;;15.90;9.63;;;16.60;99.90;;;;;;5057504;28;20051;-76
2022/06/08 06:39:06;;;;;;;11.50;8.50;;;16.70;99.90;;;;;;5057543;28;20048;-76
2022/06/08 06:41:32;;;;;;;15.93;9.60;;;16.70;99.90;;;;;;5057416;28;20446;-76
2022/06/08 06:43:59;;;;;;;12.88;9.05;;;16.70;99.90;;;;;;5058186;28;20025;-76
2022/06/08 06:46:25;;;;;;;12.57;8.88;;;16.80;99.90;;;;;;5059953;28;20104;-75
2022/06/08 06:48:50;;;;;;;23.10;12.15;;;16.80;99.90;;;;;;5041969;28;20461;-75
2022/06/08 06:51:16;;;;;;;20.20;11.38;;;16.80;99.90;;;;;;5060403;28;20047;-76
2022/06/08 06:53:42;;;;;;;19.30;12.27;;;16.80;99.90;;;;;;5040802;28;20025;-76
2022/06/08 06:56:08;;;;;;;16.27;12.00;;;16.90;99.90;;;;;;5043080;28;20021;-76
2022/06/08 06:58:35;;;;;;;16.40;12.30;;;16.90;99.90;;;;;;5061468;28;20022;-75
2022/06/08 07:01:02;;;;;;;27.60;13.50;;;17.00;99.90;;;;;;5063053;28;20025;-75
2022/06/08 07:03:29;;;;;;;17.10;12.85;;;17.10;99.90;;;;;;5061425;28;20017;-76
2022/06/08 07:05:55;;;;;;;17.92;12.20;;;17.20;99.90;;;;;;5059600;28;20025;-76
2022/06/08 07:08:21;;;;;;;20.67;12.23;;;17.30;99.90;;;;;;5060575;28;20079;-76
2022/06/08 07:13:31;;;;;;;18.52;12.23;;;17.50;99.90;;;;;;5059274;28;20123;-76
2022/06/08 07:15:57;;;;;;;21.15;11.68;;;17.60;99.90;;;;;;5060374;28;20479;-77
2022/06/08 07:18:22;;;;;;;20.23;12.95;;;17.70;99.90;;;;;;5064714;28;20025;-76
2022/06/08 07:20:48;;;;;;;18.88;13.90;;;17.80;99.90;;;;;;5037821;28;20470;-77
2022/06/08 07:23:14;;;;;;;17.35;12.43;;;17.90;99.90;;;;;;5037952;28;20029;-78
2022/06/08 07:25:39;;;;;;;20.48;12.60;;;18.00;99.90;;;;;;5055868;28;20460;-78
2022/06/08 07:28:06;;;;;;;17.65;12.00;;;18.20;99.90;;;;;;5056768;28;20428;-77
2022/06/08 07:30:32;;;;;;;16.35;12.23;;;18.30;99.90;;;;;;5042972;28;20144;-76
2022/06/08 07:32:58;;;;;;;17.63;12.77;;;18.40;99.90;;;;;;5065324;28;20025;-76
2022/06/08 07:35:23;;;;;;;22.98;14.90;;;18.50;99.90;;;;;;5055647;28;20078;-76
2022/06/08 07:37:49;;;;;;;21.60;13.90;;;18.60;99.90;;;;;;5055958;28;20066;-77
2022/06/08 07:40:15;;;;;;;23.48;13.82;;;18.70;99.90;;;;;;5037910;28;20462;-77
2022/06/08 07:42:40;;;;;;;19.27;13.27;;;18.80;99.90;;;;;;5055416;28;20118;-76
2022/06/08 07:45:09;;;;;;;22.10;14.18;;;19.00;99.90;;;;;;5055991;28;20033;-76
2022/06/08 07:49:36;;;;;;;22.63;13.00;;;19.20;99.90;;;;;;5056765;28;20025;-75
2022/06/08 07:50:21;;;;;;;19.05;13.05;;;19.30;99.90;;;;;;5056456;28;20033;-75
2022/06/08 07:52:46;;;;;;;22.15;13.32;;;19.50;99.90;;;;;;5055789;28;20071;-76
2022/06/08 07:55:12;;;;;;;21.50;13.40;;;19.50;99.90;;;;;;5054483;28;20029;-75
2022/06/08 07:57:37;;;;;;;17.77;13.70;;;19.60;99.90;;;;;;5037647;28;20041;-76
2022/06/08 08:00:04;;;;;;;19.52;12.65;;;19.70;99.90;;;;;;5055482;28;20462;-75
2022/06/08 08:02:30;;;;;;;18.63;14.43;;;19.80;99.90;;;;;;5048336;28;20029;-75
2022/06/08 08:04:57;;;;;;;24.75;16.38;;;20.00;99.90;;;;;;5053208;28;20489;-76
2022/06/08 08:07:22;;;;;;;22.63;16.95;;;20.10;99.90;;;;;;5057633;28;20029;-76
2022/06/08 08:09:49;;;;;;;23.55;15.45;;;20.20;99.90;;;;;;5038859;28;20047;-76
2022/06/08 08:12:15;;;;;;;21.88;15.13;;;20.40;99.90;;;;;;5058826;28;20139;-76
2022/06/08 08:14:41;;;;;;;30.52;22.42;;;20.50;99.90;;;;;;5059973;28;20060;-76
2022/06/08 08:17:07;;;;;;;24.67;19.35;;;20.60;99.90;;;;;;5042006;28;20017;-76
2022/06/08 08:19:33;;;;;;;26.10;19.08;;;20.70;99.90;;;;;;5060705;28;20017;-76
2022/06/08 08:21:59;;;;;;;25.92;19.02;;;20.70;99.90;;;;;;5060339;28;20493;-75
2022/06/08 08:24:25;;;;;;;25.80;20.17;;;20.80;99.90;;;;;;5063728;28;20054;-76
2022/06/08 08:26:51;;;;;;;27.17;19.13;;;21.00;99.90;;;;;;5063503;28;20021;-77
2022/06/08 08:29:18;;;;;;;25.55;18.73;;;21.00;99.90;;;;;;5062979;28;20029;-77
2022/06/08 08:31:44;;;;;;;22.15;17.85;;;21.10;99.90;;;;;;5042012;28;20025;-76
2022/06/08 08:34:10;;;;;;;25.20;18.08;;;21.20;99.90;;;;;;5042636;28;20406;-77
2022/06/08 08:36:36;;;;;;;27.55;20.75;;;21.30;99.90;;;;;;5039813;28;20475;-77
2022/06/08 08:39:02;;;;;;;21.55;18.85;;;21.30;99.90;;;;;;5047580;28;20061;-76
2022/06/08 08:44:29;;;;;;;25.40;18.63;;;21.30;99.90;;;;;;5057030;28;20064;-77
2022/06/08 08:47:28;;;;;;;16.77;14.07;;;21.30;99.90;;;;;;5050313;28;20028;-76
2022/06/08 08:50:01;;;;;;;25.45;17.40;;;21.30;99.90;;;;;;5041647;28;20037;-77
2022/06/08 08:52:48;;;;;;;24.08;19.45;;;21.40;99.90;;;;;;5059599;28;20033;-77
2022/06/08 08:55:42;;;;;;;25.20;19.63;;;21.60;99.90;;;;;;5058838;28;20135;-77
2022/06/08 08:58:07;;;;;;;22.52;18.02;;;21.60;99.90;;;;;;5040676;28;20492;-76
2022/06/08 09:00:38;;;;;;;23.65;17.85;;;21.60;99.90;;;;;;5060443;28;20080;-76
2022/06/08 09:03:32;;;;;;;22.30;17.08;;;21.70;99.90;;;;;;5060016;28;20021;-76
2022/06/08 09:06:27;;;;;;;21.40;15.80;;;21.60;99.90;;;;;;5038103;28;20112;-76
2022/06/08 09:08:58;;;;;;;17.65;13.85;;;21.70;99.90;;;;;;5045559;28;20045;-76
2022/06/08 09:11:26;;;;;;;26.02;15.85;;;21.80;99.90;;;;;;5040722;28;20087;-76
2022/06/08 09:14:01;;;;;;;25.58;17.67;;;21.90;99.90;;;;;;5041031;28;20053;-76
2022/06/08 09:16:39;;;;;;;25.77;17.98;;;22.00;99.90;;;;;;5031361;28;20082;-72
2022/06/08 09:19:35;;;;;;;23.58;16.35;;;22.10;99.90;;;;;;5044265;28;20028;-72
2022/06/08 09:22:07;;;;;;;20.13;14.70;;;22.10;99.90;;;;;;5057010;28;20025;-72
2022/06/08 09:24:47;;;;;;;21.13;15.90;;;22.10;99.90;;;;;;5056897;28;20021;-71
2022/06/08 09:27:22;;;;;;;25.23;16.50;;;22.10;99.90;;;;;;5058272;28;20547;-72
2022/06/08 09:29:53;;;;;;;23.30;15.82;;;22.00;99.90;;;;;;5057920;28;20024;-71
2022/06/08 09:32:49;;;;;;;19.08;15.02;;;22.00;99.90;;;;;;5057799;28;20029;-72
2022/06/08 09:35:37;;;;;;;23.02;17.55;;;22.10;99.90;;;;;;5014527;28;20041;-72
2022/06/08 09:38:09;;;;;;;22.75;15.88;;;22.10;99.90;;;;;;5035651;28;20120;-72
2022/06/08 09:40:44;;;;;;;31.67;18.58;;;22.20;99.90;;;;;;5036597;28;20032;-72
2022/06/08 09:43:19;;;;;;;26.65;17.08;;;22.20;99.90;;;;;;5038666;28;20022;-71
2022/06/08 09:45:53;;;;;;;21.90;16.27;;;22.20;99.90;;;;;;5040480;28;20035;-72
2022/06/08 09:51:51;;;;;;;21.73;16.33;;;22.30;99.90;;;;;;5044391;28;20378;-71
2022/06/08 09:55:04;;;;;;;26.02;15.80;;;22.30;99.90;;;;;;5038412;28;20052;-73
2022/06/08 09:57:38;;;;;;;18.63;14.20;;;22.20;99.90;;;;;;5031328;28;20506;-72
2022/06/08 10:00:25;;;;;;;19.13;13.73;;;22.20;99.90;;;;;;5035990;28;20081;-72
2022/06/08 10:03:32;;;;;;;21.85;13.43;;;22.30;99.90;;;;;;5019351;28;20077;-72
2022/06/08 10:06:09;;;;;;;19.15;13.85;;;22.40;99.90;;;;;;5036286;28;20479;-72
2022/06/08 10:09:04;;;;;;;16.65;11.82;;;22.50;99.90;;;;;;5036267;28;20021;-72
2022/06/08 10:11:41;;;;;;;14.23;11.05;;;22.50;99.90;;;;;;5045284;28;20028;-72
2022/06/08 10:14:19;;;;;;;12.88;10.32;;;22.50;99.90;;;;;;5035430;28;20083;-72
2022/06/08 10:17:00;;;;;;;15.35;10.60;;;22.40;99.90;;;;;;5037875;28;20480;-73
2022/06/08 10:19:29;;;;;;;;;;;22.20;99.90;;;;;;5055908;28;20029;-72
2022/06/08 10:21:56;;;;;;;14.23;10.98;;;22.10;99.90;;;;;;5073630;28;19904;-72
2022/06/08 10:24:28;;;;;;;12.43;9.82;;;22.10;99.90;;;;;;5075535;28;20032;-72
2022/06/08 10:27:18;;;;;;;13.43;9.98;;;22.10;99.90;;;;;;5057349;28;20028;-72
2022/06/08 10:30:03;;;;;;;12.63;9.50;;;22.20;99.90;;;;;;5075949;28;20029;-72
2022/06/08 10:32:36;;;;;;;10.75;8.35;;;22.20;99.90;;;;;;5058039;28;20024;-72
2022/06/08 10:35:36;;;;;;;10.35;8.05;;;22.20;99.90;;;;;;5046899;28;20024;-72
2022/06/08 10:38:03;;;;;;;12.38;7.88;;;22.30;99.90;;;;;;5032115;28;20298;-71
2022/06/08 10:40:48;;;;;;;11.75;9.52;;;22.30;99.90;;;;;;5055717;28;20490;-72
2022/06/08 10:43:24;;;;;;;13.77;10.13;;;22.30;99.90;;;;;;5037691;28;20470;-71
2022/06/08 10:46:04;;;;;;;12.75;9.70;;;22.40;99.90;;;;;;5037145;28;20029;-71
2022/06/08 10:48:34;;;;;;;14.45;8.95;;;22.50;99.90;;;;;;5027586;28;20037;-71
2022/06/08 10:51:17;;;;;;;15.05;9.32;;;22.50;99.90;;;;;;5036553;28;20028;-70
2022/06/08 10:56:34;;;;;;;10.20;7.63;;;22.50;99.90;;;;;;5037402;28;20036;-72
2022/06/08 10:59:05;;;;;;;11.13;7.90;;;22.50;99.90;;;;;;5038276;28;20021;-71
2022/06/08 11:01:55;;;;;;;9.00;7.20;;;22.50;99.90;;;;;;5036458;28;20029;-71
2022/06/08 11:04:27;;;;;;;10.48;6.95;;;22.50;99.90;;;;;;5019831;28;20093;-72
2022/06/08 11:06:55;;;;;;;9.88;6.95;;;22.50;99.90;;;;;;5039226;28;20165;-70
2022/06/08 11:09:48;;;;;;;10.68;8.35;;;22.50;99.90;;;;;;5041216;28;20032;-71
2022/06/08 11:12:14;;;;;;;12.13;8.68;;;22.60;99.90;;;;;;5043855;28;20037;-73
2022/06/08 11:14:52;;;;;;;10.27;7.85;;;22.60;99.90;;;;;;5054868;28;20135;-73
2022/06/08 11:17:49;;;;;;;11.88;8.43;;;22.60;99.90;;;;;;5053242;28;20053;-72
2022/06/08 11:20:35;;;;;;;11.32;8.13;;;22.60;99.90;;;;;;5042238;28;20107;-72
2022/06/08 11:23:27;;;;;;;11.98;8.27;;;22.60;99.90;;;;;;5069106;28;20017;-71
2022/06/08 11:26:24;;;;;;;10.73;8.27;;;22.60;99.90;;;;;;5066812;28;20036;-71
2022/06/08 11:28:59;;;;;;;10.25;8.45;;;22.50;99.90;;;;;;5050141;28;20025;-72
2022/06/08 11:31:28;;;;;;;11.05;8.70;;;22.60;99.90;;;;;;5058629;28;20029;-71
2022/06/08 11:34:06;;;;;;;9.50;7.90;;;22.60;99.90;;;;;;5039587;28;20029;-72
2022/06/08 11:36:44;;;;;;;8.43;6.90;;;22.70;99.90;;;;;;5059239;28;20045;-73
2022/06/08 11:39:30;;;;;;;10.30;8.35;;;22.80;99.90;;;;;;5039278;28;20021;-72
2022/06/08 11:42:17;;;;;;;10.75;7.97;;;23.00;99.90;;;;;;5055069;28;20472;-73
2022/06/08 11:44:49;;;;;;;12.38;9.23;;;23.20;99.90;;;;;;5056203;28;20025;-72
2022/06/08 11:47:43;;;;;;;11.13;7.65;;;23.30;99.90;;;;;;5060106;28;20551;-74
2022/06/08 11:50:24;;;;;;;11.20;7.32;;;23.40;99.90;;;;;;5061250;28;20479;-73
2022/06/08 11:53:05;;;;;;;9.75;7.78;;;23.50;99.90;;;;;;5051394;28;20483;-72
2022/06/08 11:55:34;;;;;;;;;;;23.50;99.90;;;;;;5052150;28;20029;-72
2022/06/08 11:58:06;;;;;;;12.77;9.48;;;23.50;99.90;;;;;;5060105;28;19904;-73
2022/06/08 12:01:13;;;;;;;12.95;9.57;;;23.50;99.90;;;;;;5042388;28;20367;-72
2022/06/08 12:03:41;;;;;;;14.32;10.50;;;23.40;99.90;;;;;;4979224;28;20026;-72
2022/06/08 12:06:31;;;;;;;14.57;9.57;;;23.30;99.90;;;;;;5043616;28;20032;-72
2022/06/08 12:09:06;;;;;;;10.57;8.52;;;23.10;99.90;;;;;;5058498;28;20077;-73
2022/06/08 12:11:33;;;;;;;10.75;8.20;;;23.00;99.90;;;;;;5058605;28;20419;-73
2022/06/08 12:14:37;;;;;;;9.82;7.70;;;22.80;99.90;;;;;;5059863;28;20040;-72
2022/06/08 12:17:24;;;;;;;8.85;7.10;;;22.60;99.90;;;;;;5040607;28;20128;-73
2022/06/08 12:19:53;;;;;;;11.07;6.50;;;22.60;99.90;;;;;;5036787;28;20108;-73
2022/06/08 12:22:29;;;;;;;11.05;6.85;;;22.60;99.90;;;;;;5048682;28;20021;-73
2022/06/08 12:25:09;;;;;;;7.18;5.97;;;22.60;99.90;;;;;;5047986;28;20017;-73
2022/06/08 12:27:59;;;;;;;8.48;6.15;;;22.70;99.90;;;;;;5050697;28;20033;-73
2022/06/08 12:30:35;;;;;;;5.45;4.60;;;22.90;99.90;;;;;;5040598;28;20029;-73
2022/06/08 12:33:16;;;;;;;9.80;5.28;;;23.10;99.90;;;;;;5058013;28;20063;-72
2022/06/08 12:36:18;;;;;;;7.75;5.45;;;23.30;99.90;;;;;;5048251;28;20021;-73
2022/06/08 12:39:02;;;;;;;5.28;4.72;;;23.70;99.90;;;;;;5054559;28;20024;-74
2022/06/08 12:41:49;;;;;;;5.53;4.28;;;23.90;99.90;;;;;;5029951;28;20478;-73
2022/06/08 12:44:28;;;;;;;5.20;3.97;;;24.20;99.90;;;;;;5047633;28;20057;-73
2022/06/08 12:46:59;;;;;;;6.72;4.13;;;24.30;99.90;;;;;;5045568;28;20063;-73
2022/06/08 12:49:46;;;;;;;;;;;24.40;99.90;;;;;;5028701;28;20017;-72
2022/06/08 12:52:23;;;;;;;5.28;3.92;;;24.40;99.90;;;;;;5048191;28;20282;-72
2022/06/08 12:54:50;;;;;;;6.90;4.15;;;24.40;99.90;;;;;;5053102;28;20025;-73
2022/06/08 12:57:19;;;;;;;4.88;3.70;;;24.40;99.90;;;;;;5039048;28;20026;-73
2022/06/08 12:59:47;;;;;;;4.57;3.40;;;24.30;99.90;;;;;;5052776;28;20059;-72
2022/06/08 13:02:27;;;;;;;3.53;3.08;;;24.20;99.90;;;;;;5034373;28;20018;-72
2022/06/08 13:04:54;;;;;;;4.33;3.40;;;24.20;99.90;;;;;;5046634;28;20399;-72
2022/06/08 13:07:27;;;;;;;6.75;3.88;;;24.10;99.90;;;;;;5050094;28;20043;-71
2022/06/08 13:09:53;;;;;;;4.65;3.95;;;24.10;99.90;;;;;;5053678;28;20123;-71
2022/06/08 13:12:24;;;;;;;4.65;3.80;;;24.10;99.90;;;;;;5050103;28;20109;-73
2022/06/08 13:14:51;;;;;;;5.40;3.83;;;24.10;99.90;;;;;;5047705;28;20099;-72
2022/06/08 13:17:17;;;;;;;4.55;3.40;;;24.00;99.90;;;;;;5055548;28;20504;-73
2022/06/08 13:19:43;;;;;;;5.43;4.30;;;23.90;99.90;;;;;;5051078;28;20024;-72